Malahat, Canada
Current Conditions -  °F | °C
As of 2:00 AM on Saturday 22 Nov 2014 (Local Time) from CYYJ Reporting Station
Few Clouds Few Clouds  
Wind Chill: 41°   Ceiling: Unl
Heat Index: 46°   Visibility: 30mi
Dew Point: 37°   Wind: 12mph
Humidity: 71%   Direction: 240°WSW
Pressure: 29.53"   Gusts: NA
Location:  48.56°N, 123.56°W
Report Text: CYYJ 221000Z 24010KT 30SM FEW035 FEW052 FEW150 08/03 A2953 RMK SC1SC1AC1 SC TR SC TR SLP001
Loading
Personal Weather Stations






























Interactive Weather Map New forecast layout! Learn more

10-Day Weather Forecast

Advertisements
Track Severe Weather on mobile